Sussex, Virginia
Current Conditions -  °F | °C
As of 11:19 AM on Wednesday 22 Oct 2014 (Local Time) from KAKQ Reporting Station
Light Rain Light Rain  
Wind Chill: 54°   Ceiling: 1000
Heat Index: 54°   Visibility: 8mi
Dew Point: 51°   Wind: 7mph
Humidity: 90%   Direction: 320°NW
Pressure: 29.9"   Gusts: NA
Location:  36.92°N, 77.28°W
Report Text: KAKQ 221519Z AUTO 32006KT 8SM -RA BKN010 OVC015 12/11 A2990 RMK AO2 RAE1459B19 CIG 006V014 P0000 T01220106 TSNO
Loading
Personal Weather Stations






























Interactive Weather Map
Tropical Storm Tracking
New forecast layout! Learn more

10-Day Weather Forecast

Advertisements
Track Severe Weather on mobile